Time;durP1;ratioP1;P1;durP2;ratioP2;P2;SDS_P1;SDS_P2;PMS_P1;PMS_P2;Temp;Humidity;BMP_temperature;BMP_pressure;BME280_temperature;BME280_humidity;BME280_pressure;Samples;Min_cycle;Max_cycle;Signal;HPM_P1;HPM_P2
2023/06/16 00:02:17;;;;;;;6.07;4.10;;;;;;;;;;5077965;28;20181;-65
2023/06/16 00:04:43;;;;;;;6.47;4.80;;;;;;;;;;5095950;28;20295;-65
2023/06/16 00:07:09;;;;;;;6.50;4.57;;;;;;;;;;5095710;28;20200;-65
2023/06/16 00:09:36;;;;;;;14.43;4.70;;;;;;;;;;5095681;28;20667;-65
2023/06/16 00:12:02;;;;;;;7.27;5.20;;;;;;;;;;5077439;28;20177;-65
2023/06/16 00:14:28;;;;;;;9.47;4.77;;;;;;;;;;5095546;28;20251;-64
2023/06/16 00:16:57;;;;;;;7.97;4.70;;;;;;;;;;5077485;28;20587;-64
2023/06/16 00:19:27;;;;;;;5.60;4.20;;;;;;;;;;5077524;28;20181;-65
2023/06/16 00:21:53;;;;;;;6.70;4.60;;;;;;;;;;5077982;28;20207;-65
2023/06/16 00:24:19;;;;;;;8.10;4.77;;;;;;;;;;5077594;28;20208;-64
2023/06/16 00:26:45;;;;;;;8.40;4.80;;;;;;;;;;5095793;28;20185;-64
2023/06/16 00:29:10;;;;;;;7.20;4.77;;;;;;;;;;5077827;28;20209;-64
2023/06/16 00:31:36;;;;;;;7.90;4.47;;;;;;;;;;5095979;28;20177;-63
2023/06/16 00:34:03;;;;;;;6.60;4.47;;;;;;;;;;5077242;28;20197;-64
2023/06/16 00:36:29;;;;;;;7.83;4.27;;;;;;;;;;5095523;28;20173;-64
2023/06/16 00:38:55;;;;;;;7.73;4.47;;;;;;;;;;5095838;28;20256;-64
2023/06/16 00:41:21;;;;;;;7.63;4.60;;;;;;;;;;5096117;28;20181;-64
2023/06/16 00:43:47;;;;;;;11.80;4.93;;;;;;;;;;5095469;28;20252;-64
2023/06/16 00:46:21;;;;;;;9.37;4.60;;;;;;;;;;5095100;28;20177;-64
2023/06/16 00:48:47;;;;;;;10.07;4.63;;;;;;;;;;5095048;28;20200;-64
2023/06/16 00:51:13;;;;;;;9.37;4.70;;;;;;;;;;5076882;28;20178;-64
2023/06/16 00:53:40;;;;;;;10.90;4.80;;;;;;;;;;5095523;28;20165;-64
2023/06/16 00:56:06;;;;;;;4.93;4.43;;;;;;;;;;5095003;28;20177;-64
2023/06/16 00:58:32;;;;;;;7.90;4.73;;;;;;;;;;5076889;28;20184;-64
2023/06/16 01:00:59;;;;;;;4.97;4.33;;;;;;;;;;5095148;28;20238;-64
2023/06/16 01:03:26;;;;;;;4.70;4.17;;;;;;;;;;5094898;28;20180;-64
2023/06/16 01:05:56;;;;;;;5.63;4.40;;;;;;;;;;5076413;28;20213;-64
2023/06/16 01:08:35;;;;;;;5.90;4.63;;;;;;;;;;5094958;28;20531;-64
2023/06/16 01:11:01;;;;;;;8.27;4.83;;;;;;;;;;5094984;28;20180;-64
2023/06/16 01:13:42;;;;;;;9.63;4.60;;;;;;;;;;5094569;28;20598;-65
2023/06/16 01:16:09;;;;;;;10.30;4.63;;;;;;;;;;5094798;28;20465;-65
2023/06/16 01:18:36;;;;;;;5.00;4.50;;;;;;;;;;5094445;28;20181;-65
2023/06/16 01:21:08;;;;;;;7.33;4.17;;;;;;;;;;5076186;28;20746;-65
2023/06/16 01:23:53;;;;;;;5.03;4.53;;;;;;;;;;5094550;28;20212;-66
2023/06/16 01:26:22;;;;;;;4.90;4.40;;;;;;;;;;5094204;28;20177;-65
2023/06/16 01:28:49;;;;;;;8.53;4.70;;;;;;;;;;5094091;28;20197;-65
2023/06/16 01:31:16;;;;;;;9.20;4.37;;;;;;;;;;5094433;28;20181;-64
2023/06/16 01:33:42;;;;;;;7.57;4.50;;;;;;;;;;5076138;28;20655;-64
2023/06/16 01:36:09;;;;;;;5.17;4.67;;;;;;;;;;5093948;28;20238;-65
2023/06/16 01:38:36;;;;;;;9.17;5.03;;;;;;;;;;5075280;28;20234;-64
2023/06/16 01:41:03;;;;;;;6.03;4.80;;;;;;;;;;5093865;28;20272;-64
2023/06/16 01:43:29;;;;;;;8.87;5.23;;;;;;;;;;5093853;28;20184;-64
2023/06/16 01:45:56;;;;;;;6.87;4.57;;;;;;;;;;5094204;28;20201;-64
2023/06/16 01:48:22;;;;;;;8.00;4.50;;;;;;;;;;5093747;28;20177;-64
2023/06/16 01:50:49;;;;;;;6.90;4.33;;;;;;;;;;5075723;28;20247;-64
2023/06/16 01:53:15;;;;;;;6.73;4.30;;;;;;;;;;5093961;28;20244;-65
2023/06/16 01:55:46;;;;;;;7.43;4.27;;;;;;;;;;5093839;28;20232;-65
2023/06/16 01:58:13;;;;;;;4.97;4.20;;;;;;;;;;5094028;28;20208;-65
2023/06/16 02:00:42;;;;;;;7.60;4.73;;;;;;;;;;5093547;28;20177;-65
2023/06/16 02:03:17;;;;;;;6.60;4.53;;;;;;;;;;5093858;28;20176;-65
2023/06/16 02:05:45;;;;;;;6.50;4.43;;;;;;;;;;5093585;28;20265;-65
2023/06/16 02:08:13;;;;;;;5.63;4.33;;;;;;;;;;5094314;28;20591;-65
2023/06/16 02:10:39;;;;;;;8.33;4.60;;;;;;;;;;5093459;28;20185;-64
2023/06/16 02:13:05;;;;;;;6.03;4.50;;;;;;;;;;5093579;28;20176;-65
2023/06/16 02:15:32;;;;;;;5.97;4.37;;;;;;;;;;5093423;28;20196;-65
2023/06/16 02:17:58;;;;;;;5.27;4.33;;;;;;;;;;5093394;28;20173;-65
2023/06/16 02:20:27;;;;;;;4.77;4.27;;;;;;;;;;5076082;28;20539;-65
2023/06/16 02:22:54;;;;;;;5.07;4.57;;;;;;;;;;5075424;28;20204;-64
2023/06/16 02:25:20;;;;;;;6.70;4.67;;;;;;;;;;5075129;28;20197;-65
2023/06/16 02:27:46;;;;;;;8.20;4.43;;;;;;;;;;5075181;28;20738;-65
2023/06/16 02:30:12;;;;;;;5.60;4.33;;;;;;;;;;5093140;28;20212;-64
2023/06/16 02:32:39;;;;;;;6.30;4.50;;;;;;;;;;5093277;28;20177;-65
2023/06/16 02:35:06;;;;;;;12.10;4.70;;;;;;;;;;5093259;28;20193;-64
2023/06/16 02:37:33;;;;;;;6.70;4.27;;;;;;;;;;5075088;28;20188;-66
2023/06/16 02:39:59;;;;;;;9.53;4.60;;;;;;;;;;5093245;28;20175;-64
2023/06/16 02:42:25;;;;;;;6.00;4.72;;;;;;;;;;5091983;28;20476;-64
2023/06/16 02:44:51;;;;;;;6.15;4.90;;;;;;;;;;5091869;28;20386;-65
2023/06/16 02:47:17;;;;;;;5.17;4.40;;;;;;;;;;5093213;28;20179;-64
2023/06/16 02:49:43;;;;;;;7.03;4.80;;;;;;;;;;5096320;28;20702;-64
2023/06/16 02:52:12;;;;;;;8.60;4.63;;;;;;;;;;5079118;28;20173;-64
2023/06/16 02:54:39;;;;;;;9.40;5.30;;;;;;;;;;5096088;28;20736;-65
2023/06/16 02:57:07;;;;;;;9.18;5.32;;;;;;;;;;5077818;28;20382;-64
2023/06/16 02:59:33;;;;;;;7.00;4.85;;;;;;;;;;5077708;28;20385;-65
2023/06/16 03:01:59;;;;;;;5.93;5.00;;;;;;;;;;5077947;28;20397;-64
2023/06/16 03:04:25;;;;;;;6.32;5.13;;;;;;;;;;5077477;28;20414;-65
2023/06/16 03:06:57;;;;;;;7.53;5.15;;;;;;;;;;5095957;28;20386;-65
2023/06/16 03:09:23;;;;;;;7.40;5.00;;;;;;;;;;5095596;28;20488;-65
2023/06/16 03:11:49;;;;;;;5.50;5.00;;;;;;;;;;5077395;28;20469;-66
2023/06/16 03:14:15;;;;;;;6.07;5.03;;;;;;;;;;5095790;28;20377;-65
2023/06/16 03:16:41;;;;;;;8.13;5.10;;;;;;;;;;5095848;28;20386;-65
2023/06/16 03:19:07;;;;;;;6.03;4.87;;;;;;;;;;5077374;28;20450;-65
2023/06/16 03:21:33;;;;;;;8.18;5.78;;;;;;;;;;5095505;28;20992;-65
2023/06/16 03:23:59;;;;;;;7.57;5.22;;;;;;;;;;5095191;28;20385;-65
2023/06/16 03:26:25;;;;;;;8.07;4.80;;;;;;;;;;5077233;28;20386;-66
2023/06/16 03:28:51;;;;;;;6.40;5.30;;;;;;;;;;5077591;28;20890;-66
2023/06/16 03:31:17;;;;;;;6.85;5.10;;;;;;;;;;5095841;28;20405;-65
2023/06/16 03:33:43;;;;;;;6.65;5.13;;;;;;;;;;5076956;28;20401;-65
2023/06/16 03:36:09;;;;;;;7.32;5.18;;;;;;;;;;5095125;28;20453;-65
2023/06/16 03:38:35;;;;;;;7.95;5.15;;;;;;;;;;5095201;28;20940;-66
2023/06/16 03:41:01;;;;;;;5.83;4.97;;;;;;;;;;5095342;28;20759;-65
2023/06/16 03:43:27;;;;;;;5.95;5.15;;;;;;;;;;5076879;28;20373;-65
2023/06/16 03:45:53;;;;;;;6.55;5.20;;;;;;;;;;5076683;28;20370;-66
2023/06/16 03:48:19;;;;;;;5.97;5.32;;;;;;;;;;5076802;28;20748;-66
2023/06/16 03:50:45;;;;;;;8.15;5.20;;;;;;;;;;5076566;28;20378;-65
2023/06/16 03:53:11;;;;;;;6.57;5.20;;;;;;;;;;5094679;28;20461;-66
2023/06/16 03:55:37;;;;;;;6.18;4.90;;;;;;;;;;5076515;28;20801;-65
2023/06/16 03:58:03;;;;;;;9.30;5.60;;;;;;;;;;5094737;28;20386;-66
2023/06/16 04:00:29;;;;;;;6.72;5.28;;;;;;;;;;5094026;28;20374;-65
2023/06/16 04:02:55;;;;;;;6.45;5.15;;;;;;;;;;5076445;28;20390;-65
2023/06/16 04:05:23;;;;;;;10.27;5.22;;;;;;;;;;5094423;28;20411;-65
2023/06/16 04:07:51;;;;;;;7.38;5.47;;;;;;;;;;5076577;28;20805;-66
2023/06/16 04:10:17;;;;;;;8.18;5.22;;;;;;;;;;5094601;28;20404;-66
2023/06/16 04:12:43;;;;;;;6.90;5.17;;;;;;;;;;5094395;28;20374;-66
2023/06/16 04:15:09;;;;;;;7.05;5.30;;;;;;;;;;5094410;28;20382;-66
2023/06/16 04:17:35;;;;;;;6.80;5.40;;;;;;;;;;5094325;28;20883;-67
2023/06/16 04:20:01;;;;;;;6.07;5.30;;;;;;;;;;5094298;28;20463;-65
2023/06/16 04:22:27;;;;;;;8.88;5.50;;;;;;;;;;5094825;28;20406;-65
2023/06/16 04:24:53;;;;;;;8.60;5.53;;;;;;;;;;5076043;28;20385;-65
2023/06/16 04:27:22;;;;;;;9.07;5.43;;;;;;;;;;5076119;28;20386;-65
2023/06/16 04:29:49;;;;;;;7.53;5.18;;;;;;;;;;5075923;28;20406;-65
2023/06/16 04:32:16;;;;;;;7.53;5.32;;;;;;;;;;5075912;28;20374;-65
2023/06/16 04:34:42;;;;;;;8.63;5.10;;;;;;;;;;5075904;28;20374;-65
2023/06/16 04:37:11;;;;;;;7.47;5.43;;;;;;;;;;5094080;28;20417;-65
2023/06/16 04:39:37;;;;;;;8.25;5.63;;;;;;;;;;5093958;28;20435;-65
2023/06/16 04:42:04;;;;;;;7.13;5.60;;;;;;;;;;5093898;28;20928;-65
2023/06/16 04:44:30;;;;;;;9.03;5.43;;;;;;;;;;5075695;28;20475;-65
2023/06/16 04:46:56;;;;;;;8.38;5.38;;;;;;;;;;5093789;28;20415;-66
2023/06/16 04:49:22;;;;;;;7.37;5.73;;;;;;;;;;5093662;28;20887;-66
2023/06/16 04:51:48;;;;;;;7.78;5.55;;;;;;;;;;5094364;28;20374;-66
2023/06/16 04:54:15;;;;;;;9.27;5.38;;;;;;;;;;5093596;28;20366;-66
2023/06/16 04:56:40;;;;;;;8.27;5.35;;;;;;;;;;5094049;28;20377;-66
2023/06/16 04:59:06;;;;;;;10.27;5.47;;;;;;;;;;5075580;28;20378;-66
2023/06/16 05:01:32;;;;;;;8.80;5.40;;;;;;;;;;5093689;28;20385;-66
2023/06/16 05:03:58;;;;;;;8.33;5.13;;;;;;;;;;5095195;28;20189;-66
2023/06/16 05:06:24;;;;;;;7.87;5.87;;;;;;;;;;5094897;28;20427;-66
2023/06/16 05:08:50;;;;;;;6.63;5.80;;;;;;;;;;5093930;28;20433;-66
2023/06/16 05:11:16;;;;;;;6.82;5.63;;;;;;;;;;5093099;28;20852;-66
2023/06/16 05:13:42;;;;;;;9.23;5.60;;;;;;;;;;5074930;28;20377;-66
2023/06/16 05:16:08;;;;;;;8.52;5.43;;;;;;;;;;5093899;28;20412;-67
2023/06/16 05:18:34;;;;;;;9.57;5.93;;;;;;;;;;5093809;28;20490;-66
2023/06/16 05:21:00;;;;;;;8.52;5.80;;;;;;;;;;5093247;28;20856;-66
2023/06/16 05:23:26;;;;;;;10.57;6.13;;;;;;;;;;5093200;28;20421;-66
2023/06/16 05:25:53;;;;;;;9.50;5.82;;;;;;;;;;5092964;28;20385;-66
2023/06/16 05:28:19;;;;;;;9.43;5.63;;;;;;;;;;5074954;28;20760;-66
2023/06/16 05:30:45;;;;;;;12.03;5.57;;;;;;;;;;5094308;28;20280;-65
2023/06/16 05:33:11;;;;;;;9.47;5.80;;;;;;;;;;5094278;28;20265;-65
2023/06/16 05:35:37;;;;;;;15.43;5.10;;;;;;;;;;5094187;28;20220;-64
2023/06/16 05:38:03;;;;;;;8.87;6.27;;;;;;;;;;5094618;28;20322;-66
2023/06/16 05:40:29;;;;;;;13.27;6.00;;;;;;;;;;5076198;28;20181;-66
2023/06/16 05:42:55;;;;;;;14.40;5.90;;;;;;;;;;5077701;28;20738;-66
2023/06/16 05:45:21;;;;;;;9.43;5.53;;;;;;;;;;5094968;28;20212;-66
2023/06/16 05:47:47;;;;;;;6.63;5.93;;;;;;;;;;5095419;28;20289;-65
2023/06/16 05:50:13;;;;;;;11.00;6.50;;;;;;;;;;5077327;28;20642;-65
2023/06/16 05:52:39;;;;;;;9.40;5.80;;;;;;;;;;5077027;28;20177;-66
2023/06/16 05:55:05;;;;;;;9.30;5.37;;;;;;;;;;5095054;28;20197;-66
2023/06/16 05:57:32;;;;;;;11.07;6.10;;;;;;;;;;5094957;28;20177;-65
2023/06/16 05:59:58;;;;;;;10.40;5.67;;;;;;;;;;5094713;28;20184;-66
2023/06/16 06:02:25;;;;;;;19.13;6.50;;;;;;;;;;5076099;28;20276;-66
2023/06/16 06:04:51;;;;;;;10.90;5.80;;;;;;;;;;5094947;28;20223;-66
2023/06/16 06:07:16;;;;;;;16.03;6.30;;;;;;;;;;5076867;28;20189;-66
2023/06/16 06:09:42;;;;;;;11.13;5.70;;;;;;;;;;5076501;28;20201;-66
2023/06/16 06:12:11;;;;;;;11.40;5.37;;;;;;;;;;5094348;28;20173;-66
2023/06/16 06:14:36;;;;;;;14.07;5.50;;;;;;;;;;5094360;28;20185;-66
2023/06/16 06:17:03;;;;;;;12.27;5.40;;;;;;;;;;5076110;28;20233;-66
2023/06/16 06:19:29;;;;;;;15.93;6.40;;;;;;;;;;5094389;28;20636;-66
2023/06/16 06:21:55;;;;;;;15.03;5.90;;;;;;;;;;5076252;28;20266;-66
2023/06/16 06:24:21;;;;;;;17.93;6.57;;;;;;;;;;5094257;28;20204;-66
2023/06/16 06:26:47;;;;;;;18.00;6.50;;;;;;;;;;5094352;28;20212;-66
2023/06/16 06:29:15;;;;;;;9.17;6.17;;;;;;;;;;5093642;28;20207;-66
2023/06/16 06:31:41;;;;;;;17.00;6.53;;;;;;;;;;5093591;28;20338;-66
2023/06/16 06:34:07;;;;;;;16.07;7.33;;;;;;;;;;5093460;28;20196;-66
2023/06/16 06:36:36;;;;;;;15.33;6.23;;;;;;;;;;5093941;28;20595;-67
2023/06/16 06:39:02;;;;;;;17.07;7.23;;;;;;;;;;5075298;28;20181;-66
2023/06/16 06:41:28;;;;;;;15.47;7.10;;;;;;;;;;5075032;28;20180;-66
2023/06/16 06:43:54;;;;;;;11.40;6.80;;;;;;;;;;5093054;28;20197;-66
2023/06/16 06:46:20;;;;;;;14.43;6.60;;;;;;;;;;5074916;28;20204;-65
2023/06/16 06:48:46;;;;;;;11.67;6.43;;;;;;;;;;5093240;28;20200;-65
2023/06/16 06:51:16;;;;;;;20.13;7.73;;;;;;;;;;5093141;28;20169;-65
2023/06/16 06:53:42;;;;;;;13.87;7.10;;;;;;;;;;5093287;28;20181;-67
2023/06/16 06:56:08;;;;;;;11.13;6.60;;;;;;;;;;5074969;28;20210;-65
2023/06/16 06:58:34;;;;;;;12.80;6.50;;;;;;;;;;5093287;28;20168;-65
2023/06/16 07:01:00;;;;;;;10.90;6.63;;;;;;;;;;5074937;28;20177;-66
2023/06/16 07:03:27;;;;;;;11.80;6.17;;;;;;;;;;5092834;28;20169;-66
2023/06/16 07:05:53;;;;;;;23.07;6.97;;;;;;;;;;5092911;28;20292;-65
2023/06/16 07:08:19;;;;;;;11.87;6.63;;;;;;;;;;5093037;28;20200;-65
2023/06/16 07:10:45;;;;;;;14.10;6.73;;;;;;;;;;5074691;28;20642;-65
2023/06/16 07:13:11;;;;;;;12.10;5.80;;;;;;;;;;5092754;28;20188;-65
2023/06/16 07:15:37;;;;;;;11.03;6.03;;;;;;;;;;5074533;28;20197;-66
2023/06/16 07:18:03;;;;;;;13.27;5.87;;;;;;;;;;5092994;28;20178;-65
2023/06/16 07:20:30;;;;;;;13.67;6.23;;;;;;;;;;5092859;28;20181;-65
2023/06/16 07:22:55;;;;;;;8.87;5.60;;;;;;;;;;5092981;28;20207;-65
2023/06/16 07:25:21;;;;;;;13.67;5.83;;;;;;;;;;5092736;28;20224;-65
2023/06/16 07:27:47;;;;;;;16.47;5.63;;;;;;;;;;5092718;28;20226;-66
2023/06/16 07:30:13;;;;;;;11.80;6.10;;;;;;;;;;5074519;28;20674;-65
2023/06/16 07:32:39;;;;;;;14.23;6.07;;;;;;;;;;5092505;28;20200;-66
2023/06/16 07:35:06;;;;;;;13.13;5.87;;;;;;;;;;5075117;28;20204;-65
2023/06/16 07:37:32;;;;;;;10.60;5.00;;;;;;;;;;5096364;28;20547;-65
2023/06/16 07:39:59;;;;;;;10.10;5.13;;;;;;;;;;5096341;28;20196;-66
2023/06/16 07:42:25;;;;;;;12.30;4.70;;;;;;;;;;5096449;28;20181;-65
2023/06/16 07:44:52;;;;;;;7.97;3.87;;;;;;;;;;5096467;28;20200;-66
2023/06/16 07:47:18;;;;;;;5.30;4.73;;;;;;;;;;5096152;28;20188;-66
2023/06/16 07:49:44;;;;;;;9.17;5.70;;;;;;;;;;5096082;28;20201;-66
2023/06/16 07:52:11;;;;;;;11.50;5.87;;;;;;;;;;5096124;28;20177;-66
2023/06/16 07:54:40;;;;;;;9.07;5.13;;;;;;;;;;5096649;28;20666;-66
2023/06/16 07:57:06;;;;;;;12.30;5.67;;;;;;;;;;5096176;28;20226;-66
2023/06/16 07:59:32;;;;;;;14.37;5.73;;;;;;;;;;5077740;28;20177;-66
2023/06/16 08:01:58;;;;;;;13.87;5.93;;;;;;;;;;5095910;28;20684;-66
2023/06/16 08:04:29;;;;;;;12.00;6.20;;;;;;;;;;5077697;28;20307;-66
2023/06/16 08:06:55;;;;;;;18.87;6.30;;;;;;;;;;5096128;28;20154;-66
2023/06/16 08:09:21;;;;;;;18.77;6.73;;;;;;;;;;5095997;28;20197;-66
2023/06/16 08:11:46;;;;;;;13.33;7.00;;;;;;;;;;5096060;28;20181;-66
2023/06/16 08:14:12;;;;;;;19.60;7.73;;;;;;;;;;5077586;28;20197;-66
2023/06/16 08:16:38;;;;;;;17.83;8.03;;;;;;;;;;5095793;28;20177;-66
2023/06/16 08:19:05;;;;;;;17.33;7.80;;;;;;;;;;5077363;28;20185;-66
2023/06/16 08:21:30;;;;;;;17.03;8.27;;;;;;;;;;5095636;28;20227;-66
2023/06/16 08:23:56;;;;;;;13.00;7.33;;;;;;;;;;5095379;28;20205;-66
2023/06/16 08:26:22;;;;;;;17.33;6.67;;;;;;;;;;5095334;28;20178;-66
2023/06/16 08:28:50;;;;;;;14.43;6.67;;;;;;;;;;5095917;28;20220;-66
2023/06/16 08:31:16;;;;;;;16.53;6.13;;;;;;;;;;5077263;28;20227;-66
2023/06/16 08:33:42;;;;;;;16.47;6.53;;;;;;;;;;5095741;28;20181;-66
2023/06/16 08:36:07;;;;;;;8.57;4.83;;;;;;;;;;5077168;28;20187;-66
2023/06/16 08:38:34;;;;;;;7.80;4.97;;;;;;;;;;5095434;28;20268;-67
2023/06/16 08:41:01;;;;;;;9.30;4.57;;;;;;;;;;5077049;28;20227;-66
2023/06/16 08:43:27;;;;;;;9.53;4.63;;;;;;;;;;5095157;28;20209;-66
2023/06/16 08:45:54;;;;;;;6.57;4.60;;;;;;;;;;5095291;28;20231;-66
2023/06/16 08:48:20;;;;;;;6.90;4.57;;;;;;;;;;5095654;28;20227;-66
2023/06/16 08:50:46;;;;;;;7.80;4.10;;;;;;;;;;5094907;28;20666;-66
2023/06/16 08:53:12;;;;;;;4.80;3.80;;;;;;;;;;5095533;28;20631;-66
2023/06/16 08:55:42;;;;;;;8.30;4.77;;;;;;;;;;5076736;28;20758;-66
2023/06/16 08:58:12;;;;;;;9.53;4.13;;;;;;;;;;5076803;28;20226;-66
2023/06/16 09:00:39;;;;;;;6.30;3.60;;;;;;;;;;5076840;28;20650;-66
2023/06/16 09:03:08;;;;;;;5.10;4.20;;;;;;;;;;5076731;28;20189;-66
2023/06/16 09:05:34;;;;;;;8.80;4.37;;;;;;;;;;5076461;28;20216;-66
2023/06/16 09:08:01;;;;;;;7.17;4.10;;;;;;;;;;5076499;28;20654;-66
2023/06/16 09:10:27;;;;;;;4.17;3.80;;;;;;;;;;5094560;28;20327;-66
2023/06/16 09:12:53;;;;;;;9.07;4.50;;;;;;;;;;5094542;28;20203;-66
2023/06/16 09:15:20;;;;;;;8.40;4.57;;;;;;;;;;5094334;28;20232;-66
2023/06/16 09:17:47;;;;;;;9.57;4.73;;;;;;;;;;5094421;28;20172;-66
2023/06/16 09:20:14;;;;;;;14.17;4.40;;;;;;;;;;5076149;28;20181;-66
2023/06/16 09:22:40;;;;;;;4.30;3.90;;;;;;;;;;5094644;28;20173;-66
2023/06/16 09:25:09;;;;;;;5.93;3.90;;;;;;;;;;5076174;28;20211;-66
2023/06/16 09:27:43;;;;;;;5.23;4.07;;;;;;;;;;5076263;28;20181;-66
2023/06/16 09:30:09;;;;;;;8.57;4.10;;;;;;;;;;5076107;28;20746;-67
2023/06/16 09:32:37;;;;;;;5.67;4.37;;;;;;;;;;5076001;28;20188;-67
2023/06/16 09:35:22;;;;;;;4.60;4.20;;;;;;;;;;5094473;28;20185;-65
2023/06/16 09:37:49;;;;;;;8.73;4.00;;;;;;;;;;5094251;28;20647;-65
2023/06/16 09:40:15;;;;;;;5.00;4.50;;;;;;;;;;5094256;28;20173;-65
2023/06/16 09:42:41;;;;;;;8.13;4.23;;;;;;;;;;5094027;28;20362;-66
2023/06/16 09:45:17;;;;;;;9.27;4.33;;;;;;;;;;5075672;28;20201;-66
2023/06/16 09:47:47;;;;;;;5.57;4.27;;;;;;;;;;5075807;28;20222;-66
2023/06/16 09:50:17;;;;;;;9.13;4.10;;;;;;;;;;5093859;28;20689;-65
2023/06/16 09:52:47;;;;;;;5.07;4.50;;;;;;;;;;5094745;28;20177;-66
2023/06/16 09:55:14;;;;;;;6.60;4.17;;;;;;;;;;5094212;28;20208;-65
2023/06/16 09:57:41;;;;;;;8.03;4.23;;;;;;;;;;5094006;28;20222;-66
2023/06/16 10:00:17;;;;;;;6.97;4.60;;;;;;;;;;5075672;28;20185;-66
2023/06/16 10:02:44;;;;;;;5.50;4.20;;;;;;;;;;5075698;28;20176;-65
2023/06/16 10:05:10;;;;;;;6.50;4.40;;;;;;;;;;5075371;28;20578;-65
2023/06/16 10:07:41;;;;;;;6.60;4.20;;;;;;;;;;5075544;28;20267;-66
2023/06/16 10:10:13;;;;;;;5.27;4.27;;;;;;;;;;5093768;28;20192;-65
2023/06/16 10:13:05;;;;;;;6.03;4.30;;;;;;;;;;5093853;28;20158;-65
2023/06/16 10:15:37;;;;;;;6.30;4.33;;;;;;;;;;5089089;28;20236;-65
2023/06/16 10:18:06;;;;;;;4.60;4.20;;;;;;;;;;5093535;28;20214;-65
2023/06/16 10:20:32;;;;;;;12.93;4.10;;;;;;;;;;5075327;28;20188;-65
2023/06/16 10:23:02;;;;;;;9.77;4.20;;;;;;;;;;5075418;28;20184;-66
2023/06/16 10:25:29;;;;;;;8.67;3.73;;;;;;;;;;5075164;28;20682;-66
2023/06/16 10:27:55;;;;;;;6.33;4.47;;;;;;;;;;5093667;28;20177;-66
2023/06/16 10:30:23;;;;;;;5.40;4.17;;;;;;;;;;5093284;28;20204;-66
2023/06/16 10:32:49;;;;;;;9.57;4.10;;;;;;;;;;5093446;28;20175;-66
2023/06/16 10:35:17;;;;;;;10.90;4.70;;;;;;;;;;5075156;28;20706;-66
2023/06/16 10:37:43;;;;;;;4.57;3.87;;;;;;;;;;5075422;28;20222;-66
2023/06/16 10:40:14;;;;;;;5.63;4.30;;;;;;;;;;5093565;28;20673;-66
2023/06/16 10:42:41;;;;;;;5.00;4.60;;;;;;;;;;5104745;22;20225;-67
2023/06/16 10:45:26;;;;;;;4.97;4.43;;;;;;;;;;5073725;28;20173;-65
2023/06/16 10:48:03;;;;;;;4.90;4.40;;;;;;;;;;5073209;28;20177;-67
2023/06/16 10:50:41;;;;;;;4.87;4.37;;;;;;;;;;5072023;28;20210;-67
2023/06/16 10:53:10;;;;;;;5.00;4.50;;;;;;;;;;5073065;28;20229;-67
2023/06/16 10:55:39;;;;;;;4.57;4.17;;;;;;;;;;5072926;28;20182;-67
2023/06/16 10:58:20;;;;;;;4.90;4.13;;;;;;;;;;5071924;28;20174;-67
2023/06/16 11:00:56;;;;;;;6.07;4.87;;;;;;;;;;5071894;28;20245;-66
2023/06/16 11:03:22;;;;;;;5.57;4.30;;;;;;;;;;5073221;28;20210;-66
2023/06/16 11:05:48;;;;;;;8.67;4.33;;;;;;;;;;5073158;28;20181;-67
2023/06/16 11:08:15;;;;;;;4.90;4.40;;;;;;;;;;5073227;28;20549;-66
2023/06/16 11:10:49;;;;;;;4.70;4.30;;;;;;;;;;5074519;28;20209;-66
2023/06/16 11:13:15;;;;;;;8.87;4.50;;;;;;;;;;5076930;28;20676;-66
2023/06/16 11:15:44;;;;;;;6.37;4.67;;;;;;;;;;5075485;28;20556;-68
2023/06/16 11:18:12;;;;;;;5.97;5.03;;;;;;;;;;5075407;28;20473;-66
2023/06/16 11:20:38;;;;;;;5.55;4.90;;;;;;;;;;5076160;28;20458;-66
2023/06/16 11:23:04;;;;;;;8.02;5.10;;;;;;;;;;5074192;28;20800;-66
2023/06/16 11:25:31;;;;;;;6.07;5.03;;;;;;;;;;5075620;28;20379;-66
2023/06/16 11:27:57;;;;;;;5.70;4.70;;;;;;;;;;5075459;28;20862;-66
2023/06/16 11:30:24;;;;;;;5.78;5.18;;;;;;;;;;5075666;28;20407;-66
2023/06/16 11:32:50;;;;;;;5.55;4.95;;;;;;;;;;5073812;28;20388;-66
2023/06/16 11:35:17;;;;;;;5.30;4.65;;;;;;;;;;5075474;28;20372;-66
2023/06/16 11:37:50;;;;;;;5.97;4.83;;;;;;;;;;5073968;28;20735;-66
2023/06/16 11:40:16;;;;;;;7.68;5.03;;;;;;;;;;5073840;28;20384;-68
2023/06/16 11:42:42;;;;;;;6.40;4.97;;;;;;;;;;5074948;28;20478;-66
2023/06/16 11:45:08;;;;;;;9.50;5.15;;;;;;;;;;5073625;28;20467;-66
2023/06/16 11:47:34;;;;;;;6.15;4.95;;;;;;;;;;5075027;28;20376;-66
2023/06/16 11:50:00;;;;;;;7.30;4.65;;;;;;;;;;5075251;28;20968;-66
2023/06/16 11:52:27;;;;;;;7.55;5.20;;;;;;;;;;5073488;28;20776;-66
2023/06/16 11:54:57;;;;;;;9.20;5.00;;;;;;;;;;5074594;28;20388;-66
2023/06/16 11:57:23;;;;;;;9.03;5.10;;;;;;;;;;5075894;28;20257;-66
2023/06/16 11:59:49;;;;;;;5.07;4.50;;;;;;;;;;5075685;28;20178;-66
2023/06/16 12:02:15;;;;;;;8.20;5.00;;;;;;;;;;5075714;28;20209;-66
2023/06/16 12:04:42;;;;;;;6.30;4.80;;;;;;;;;;5074757;28;20277;-66
2023/06/16 12:07:08;;;;;;;8.73;4.93;;;;;;;;;;5075925;28;20178;-66
2023/06/16 12:09:37;;;;;;;7.87;4.90;;;;;;;;;;5075489;28;20208;-67
2023/06/16 12:12:04;;;;;;;5.90;4.40;;;;;;;;;;5075547;28;20200;-68
2023/06/16 12:14:30;;;;;;;5.77;4.83;;;;;;;;;;5075601;28;20181;-67
2023/06/16 12:16:56;;;;;;;9.00;4.70;;;;;;;;;;5074401;28;20186;-68
2023/06/16 12:19:22;;;;;;;8.40;4.90;;;;;;;;;;5074165;28;20186;-66
2023/06/16 12:21:54;;;;;;;5.60;5.00;;;;;;;;;;5074873;28;20201;-66
2023/06/16 12:24:20;;;;;;;5.40;4.83;;;;;;;;;;5075544;28;20644;-65
2023/06/16 12:26:47;;;;;;;9.97;5.00;;;;;;;;;;5075444;28;20178;-66
2023/06/16 12:29:14;;;;;;;5.37;4.53;;;;;;;;;;5074436;28;20279;-66
2023/06/16 12:31:53;;;;;;;5.53;4.80;;;;;;;;;;5075468;28;20683;-66
2023/06/16 12:34:23;;;;;;;6.03;4.87;;;;;;;;;;5075895;28;20457;-66
2023/06/16 12:36:49;;;;;;;6.73;4.77;;;;;;;;;;5075278;28;20166;-65
2023/06/16 12:39:19;;;;;;;8.23;5.10;;;;;;;;;;5075306;28;20185;-66
2023/06/16 12:41:57;;;;;;;6.30;4.60;;;;;;;;;;5075060;28;20219;-66
2023/06/16 12:44:24;;;;;;;7.53;4.50;;;;;;;;;;5073767;28;20205;-66
2023/06/16 12:46:51;;;;;;;7.07;4.63;;;;;;;;;;5074859;28;20248;-66
2023/06/16 12:49:19;;;;;;;4.87;4.33;;;;;;;;;;5073429;28;20232;-67
2023/06/16 12:51:44;;;;;;;5.53;4.47;;;;;;;;;;5075237;28;20200;-67
2023/06/16 12:54:12;;;;;;;5.17;4.63;;;;;;;;;;5074696;28;20265;-67
2023/06/16 12:56:38;;;;;;;5.53;5.03;;;;;;;;;;5074809;28;20550;-66
2023/06/16 12:59:04;;;;;;;9.90;4.90;;;;;;;;;;5074756;28;20186;-67
2023/06/16 13:01:30;;;;;;;6.93;4.70;;;;;;;;;;5074913;28;20198;-68
2023/06/16 13:03:56;;;;;;;11.43;4.80;;;;;;;;;;5075539;28;20189;-67
2023/06/16 13:06:22;;;;;;;5.10;4.60;;;;;;;;;;5074718;28;20606;-67
2023/06/16 13:08:48;;;;;;;5.10;4.60;;;;;;;;;;5073328;28;20205;-67
2023/06/16 13:11:14;;;;;;;7.23;4.70;;;;;;;;;;5074908;28;20644;-65
2023/06/16 13:13:40;;;;;;;10.07;5.17;;;;;;;;;;5073266;28;20185;-66
2023/06/16 13:16:06;;;;;;;5.67;4.53;;;;;;;;;;5072993;28;20174;-66
2023/06/16 13:18:32;;;;;;;5.13;4.63;;;;;;;;;;5073186;28;20311;-66
2023/06/16 13:20:59;;;;;;;10.77;4.90;;;;;;;;;;5072977;28;20679;-65
2023/06/16 13:23:25;;;;;;;7.43;4.75;;;;;;;;;;5073150;28;20551;-67
2023/06/16 13:25:51;;;;;;;6.37;5.17;;;;;;;;;;5074118;28;20189;-66
2023/06/16 13:28:17;;;;;;;6.63;4.93;;;;;;;;;;5074242;28;20188;-66
2023/06/16 13:30:43;;;;;;;9.30;4.43;;;;;;;;;;5074176;28;20204;-66
2023/06/16 13:33:09;;;;;;;5.78;4.65;;;;;;;;;;5073237;28;20190;-66
2023/06/16 13:35:35;;;;;;;4.97;4.32;;;;;;;;;;5074241;28;20227;-68
2023/06/16 13:38:01;;;;;;;7.63;4.80;;;;;;;;;;5072927;28;20185;-67
2023/06/16 13:40:27;;;;;;;9.35;5.22;;;;;;;;;;5074128;28;20257;-67
2023/06/16 13:42:53;;;;;;;6.95;5.47;;;;;;;;;;5072329;28;20223;-67
2023/06/16 13:45:19;;;;;;;7.07;5.20;;;;;;;;;;5074168;28;20186;-68
2023/06/16 13:47:45;;;;;;;6.03;4.82;;;;;;;;;;5072447;28;20186;-68
2023/06/16 13:50:11;;;;;;;7.82;4.93;;;;;;;;;;5073933;28;20207;-68
2023/06/16 13:52:37;;;;;;;5.63;4.80;;;;;;;;;;5072221;28;20243;-67
2023/06/16 13:55:03;;;;;;;8.82;5.28;;;;;;;;;;5073729;28;20165;-67
2023/06/16 13:57:29;;;;;;;5.38;4.95;;;;;;;;;;5072429;28;20178;-65
2023/06/16 13:59:58;;;;;;;6.15;5.25;;;;;;;;;;5073642;28;20285;-66
2023/06/16 14:02:24;;;;;;;6.95;5.55;;;;;;;;;;5072262;28;20691;-68
2023/06/16 14:04:50;;;;;;;5.63;4.65;;;;;;;;;;5072265;28;20566;-66
2023/06/16 14:07:16;;;;;;;6.15;5.55;;;;;;;;;;5072275;28;20169;-68
2023/06/16 14:09:42;;;;;;;6.18;5.40;;;;;;;;;;5075976;28;20701;-65
2023/06/16 14:12:09;;;;;;;5.88;5.00;;;;;;;;;;5074781;28;20202;-66
2023/06/16 14:14:35;;;;;;;5.15;4.75;;;;;;;;;;5076548;28;20177;-67
2023/06/16 14:17:00;;;;;;;6.07;4.95;;;;;;;;;;5075455;28;20169;-67
2023/06/16 14:19:26;;;;;;;6.05;4.95;;;;;;;;;;5075762;28;20666;-66
2023/06/16 14:21:52;;;;;;;6.25;4.85;;;;;;;;;;5074382;28;20274;-67
2023/06/16 14:24:18;;;;;;;5.95;5.05;;;;;;;;;;5075480;28;20185;-65
2023/06/16 14:26:44;;;;;;;7.05;5.38;;;;;;;;;;5074866;28;20655;-65
2023/06/16 14:29:10;;;;;;;5.28;4.78;;;;;;;;;;5074120;28;20706;-66
2023/06/16 14:31:36;;;;;;;5.80;5.20;;;;;;;;;;5075182;28;20194;-66
2023/06/16 14:34:03;;;;;;;6.28;5.50;;;;;;;;;;5074924;28;20165;-66
2023/06/16 14:36:29;;;;;;;5.60;5.10;;;;;;;;;;5076077;28;20697;-67
2023/06/16 14:38:55;;;;;;;8.20;5.20;;;;;;;;;;5075783;28;20169;-68
2023/06/16 14:41:21;;;;;;;5.47;4.78;;;;;;;;;;5075192;28;20208;-66